sensor_id;sensor_type;location;lat;lon;timestamp;pressure;altitude;pressure_sealevel;temperature
48628;BMP280;34424;52.234;6.500;2023-09-08T00:00:40;101677.7;;;17.21
48628;BMP280;34424;52.234;6.500;2023-09-08T00:05:40;101672.1;;;17.12
48628;BMP280;34424;52.234;6.500;2023-09-08T00:10:40;101671.1;;;16.94
48628;BMP280;34424;52.234;6.500;2023-09-08T00:15:40;101669.4;;;16.81
48628;BMP280;34424;52.234;6.500;2023-09-08T00:20:40;101668.2;;;16.59
48628;BMP280;34424;52.234;6.500;2023-09-08T00:25:40;101670.8;;;16.41
48628;BMP280;34424;52.234;6.500;2023-09-08T00:30:40;101668.8;;;16.35
48628;BMP280;34424;52.234;6.500;2023-09-08T00:35:40;101671.8;;;16.33
48628;BMP280;34424;52.234;6.500;2023-09-08T00:40:40;101666.6;;;16.09
48628;BMP280;34424;52.234;6.500;2023-09-08T00:45:41;101662.3;;;16.05
48628;BMP280;34424;52.234;6.500;2023-09-08T00:50:40;101663.8;;;16.03
48628;BMP280;34424;52.234;6.500;2023-09-08T00:55:40;101658.9;;;15.97
48628;BMP280;34424;52.234;6.500;2023-09-08T01:00:40;101659.4;;;15.97
48628;BMP280;34424;52.234;6.500;2023-09-08T01:05:40;101661.5;;;16.02
48628;BMP280;34424;52.234;6.500;2023-09-08T01:10:40;101658.5;;;15.85
48628;BMP280;34424;52.234;6.500;2023-09-08T01:15:40;101662.8;;;15.68
48628;BMP280;34424;52.234;6.500;2023-09-08T01:20:46;101660.2;;;15.5
48628;BMP280;34424;52.234;6.500;2023-09-08T01:25:41;101661.3;;;15.31
48628;BMP280;34424;52.234;6.500;2023-09-08T01:30:40;101658.9;;;15.17
48628;BMP280;34424;52.234;6.500;2023-09-08T01:35:40;101657.1;;;15.02
48628;BMP280;34424;52.234;6.500;2023-09-08T01:40:40;101654.4;;;14.96
48628;BMP280;34424;52.234;6.500;2023-09-08T01:45:40;101647.7;;;14.93
48628;BMP280;34424;52.234;6.500;2023-09-08T01:50:40;101651.4;;;14.83
48628;BMP280;34424;52.234;6.500;2023-09-08T01:55:40;101651.3;;;14.83
48628;BMP280;34424;52.234;6.500;2023-09-08T02:00:40;101644.6;;;14.85
48628;BMP280;34424;52.234;6.500;2023-09-08T02:05:40;101652;;;14.93
48628;BMP280;34424;52.234;6.500;2023-09-08T02:10:42;101645.4;;;14.8
48628;BMP280;34424;52.234;6.500;2023-09-08T02:15:40;101647.2;;;14.72
48628;BMP280;34424;52.234;6.500;2023-09-08T02:20:40;101644.3;;;14.67
48628;BMP280;34424;52.234;6.500;2023-09-08T02:25:40;101647.6;;;14.64
48628;BMP280;34424;52.234;6.500;2023-09-08T02:30:40;101643.4;;;14.7
48628;BMP280;34424;52.234;6.500;2023-09-08T02:35:40;101644.7;;;14.63
48628;BMP280;34424;52.234;6.500;2023-09-08T02:40:40;101636.2;;;14.53
48628;BMP280;34424;52.234;6.500;2023-09-08T02:45:41;101636.2;;;14.45
48628;BMP280;34424;52.234;6.500;2023-09-08T02:50:40;101636.4;;;14.38
48628;BMP280;34424;52.234;6.500;2023-09-08T02:55:40;101637.9;;;14.41
48628;BMP280;34424;52.234;6.500;2023-09-08T03:00:40;101639.4;;;14.55
48628;BMP280;34424;52.234;6.500;2023-09-08T03:05:41;101644.5;;;14.48
48628;BMP280;34424;52.234;6.500;2023-09-08T03:10:41;101641.6;;;14.4
48628;BMP280;34424;52.234;6.500;2023-09-08T03:15:40;101634.6;;;14.33
48628;BMP280;34424;52.234;6.500;2023-09-08T03:20:40;101641.4;;;14.26
48628;BMP280;34424;52.234;6.500;2023-09-08T03:25:41;101643.1;;;14.19
48628;BMP280;34424;52.234;6.500;2023-09-08T03:30:40;101636.2;;;14.18
48628;BMP280;34424;52.234;6.500;2023-09-08T03:35:40;101638.5;;;14.16
48628;BMP280;34424;52.234;6.500;2023-09-08T03:40:41;101635.5;;;14.17
48628;BMP280;34424;52.234;6.500;2023-09-08T03:45:40;101633.6;;;14.13
48628;BMP280;34424;52.234;6.500;2023-09-08T03:50:41;101634;;;14.13
48628;BMP280;34424;52.234;6.500;2023-09-08T03:55:41;101632.8;;;14.17
48628;BMP280;34424;52.234;6.500;2023-09-08T04:00:41;101629.9;;;14.08
48628;BMP280;34424;52.234;6.500;2023-09-08T04:05:41;101631.7;;;14.06
48628;BMP280;34424;52.234;6.500;2023-09-08T04:10:41;101634.6;;;14.09
48628;BMP280;34424;52.234;6.500;2023-09-08T04:15:41;101633.5;;;14.11
48628;BMP280;34424;52.234;6.500;2023-09-08T04:20:41;101628.6;;;14.14
48628;BMP280;34424;52.234;6.500;2023-09-08T04:25:41;101631.1;;;14.12
48628;BMP280;34424;52.234;6.500;2023-09-08T04:30:41;101636.2;;;14.03
48628;BMP280;34424;52.234;6.500;2023-09-08T04:35:41;101629.3;;;14.04
48628;BMP280;34424;52.234;6.500;2023-09-08T04:40:44;101627.9;;;14.09
48628;BMP280;34424;52.234;6.500;2023-09-08T04:45:41;101629.9;;;14.11
48628;BMP280;34424;52.234;6.500;2023-09-08T04:50:41;101639.1;;;14.09
48628;BMP280;34424;52.234;6.500;2023-09-08T04:55:41;101635.8;;;14.02
48628;BMP280;34424;52.234;6.500;2023-09-08T05:00:41;101633.2;;;13.97
48628;BMP280;34424;52.234;6.500;2023-09-08T05:05:41;101639;;;14.02
48628;BMP280;34424;52.234;6.500;2023-09-08T05:10:41;101640.5;;;14.01
48628;BMP280;34424;52.234;6.500;2023-09-08T05:15:41;101644.4;;;14.18
48628;BMP280;34424;52.234;6.500;2023-09-08T05:20:41;101640.1;;;14.3
48628;BMP280;34424;52.234;6.500;2023-09-08T05:25:41;101643.2;;;14.33
48628;BMP280;34424;52.234;6.500;2023-09-08T05:30:41;101644.1;;;14.44
48628;BMP280;34424;52.234;6.500;2023-09-08T05:35:41;101641.8;;;14.55
48628;BMP280;34424;52.234;6.500;2023-09-08T05:40:41;101639.8;;;14.79
48628;BMP280;34424;52.234;6.500;2023-09-08T05:45:41;101639.9;;;14.99
48628;BMP280;34424;52.234;6.500;2023-09-08T05:50:41;101644.8;;;15.11
48628;BMP280;34424;52.234;6.500;2023-09-08T05:55:41;101642.8;;;15.26
48628;BMP280;34424;52.234;6.500;2023-09-08T06:00:41;101644.9;;;15.41
48628;BMP280;34424;52.234;6.500;2023-09-08T06:05:41;101644.2;;;15.61
48628;BMP280;34424;52.234;6.500;2023-09-08T06:10:41;101640;;;15.78
48628;BMP280;34424;52.234;6.500;2023-09-08T06:15:41;101642;;;15.94
48628;BMP280;34424;52.234;6.500;2023-09-08T06:20:41;101640.3;;;16.17
48628;BMP280;34424;52.234;6.500;2023-09-08T06:25:41;101634.6;;;16.54
48628;BMP280;34424;52.234;6.500;2023-09-08T06:30:41;101640.7;;;18.7
48628;BMP280;34424;52.234;6.500;2023-09-08T06:35:41;101641.6;;;20.9
48628;BMP280;34424;52.234;6.500;2023-09-08T06:40:41;101638.3;;;22.16
48628;BMP280;34424;52.234;6.500;2023-09-08T06:45:41;101636.9;;;23.12
48628;BMP280;34424;52.234;6.500;2023-09-08T06:50:41;101640.1;;;24.19
48628;BMP280;34424;52.234;6.500;2023-09-08T06:55:41;101637.6;;;24.96
48628;BMP280;34424;52.234;6.500;2023-09-08T07:00:41;101636.9;;;25.3
48628;BMP280;34424;52.234;6.500;2023-09-08T07:05:41;101636.7;;;25.78
48628;BMP280;34424;52.234;6.500;2023-09-08T07:10:41;101632.2;;;26.34
48628;BMP280;34424;52.234;6.500;2023-09-08T07:15:41;101631.6;;;26.17
48628;BMP280;34424;52.234;6.500;2023-09-08T07:20:41;101645.3;;;27.45
48628;BMP280;34424;52.234;6.500;2023-09-08T07:25:44;101655;;;27.91
48628;BMP280;34424;52.234;6.500;2023-09-08T07:30:41;101655.1;;;28.27
48628;BMP280;34424;52.234;6.500;2023-09-08T07:35:41;101659;;;28.97
48628;BMP280;34424;52.234;6.500;2023-09-08T07:40:41;101658.7;;;29.46
48628;BMP280;34424;52.234;6.500;2023-09-08T07:45:41;101657.5;;;29.95
48628;BMP280;34424;52.234;6.500;2023-09-08T07:50:41;101653.6;;;30.41
48628;BMP280;34424;52.234;6.500;2023-09-08T07:55:41;101657.4;;;30.22
48628;BMP280;34424;52.234;6.500;2023-09-08T08:00:41;101660.6;;;30.69
48628;BMP280;34424;52.234;6.500;2023-09-08T08:05:41;101659.6;;;31.45
48628;BMP280;34424;52.234;6.500;2023-09-08T08:10:41;101655.7;;;31.52
48628;BMP280;34424;52.234;6.500;2023-09-08T08:15:41;101654.3;;;31.61
48628;BMP280;34424;52.234;6.500;2023-09-08T08:20:41;101661.5;;;31.61
48628;BMP280;34424;52.234;6.500;2023-09-08T08:25:41;101656.2;;;30.57
48628;BMP280;34424;52.234;6.500;2023-09-08T08:30:41;101662.1;;;31.51
48628;BMP280;34424;52.234;6.500;2023-09-08T08:35:41;101660.4;;;32.32
48628;BMP280;34424;52.234;6.500;2023-09-08T08:40:41;101659.6;;;31.53
48628;BMP280;34424;52.234;6.500;2023-09-08T08:45:41;101661;;;31.48
48628;BMP280;34424;52.234;6.500;2023-09-08T08:50:41;101656.8;;;31.62
48628;BMP280;34424;52.234;6.500;2023-09-08T08:55:41;101651;;;31.9
48628;BMP280;34424;52.234;6.500;2023-09-08T09:00:41;101654;;;32.52
48628;BMP280;34424;52.234;6.500;2023-09-08T09:05:41;101651.5;;;32.38
48628;BMP280;34424;52.234;6.500;2023-09-08T09:10:41;101655.5;;;32.75
48628;BMP280;34424;52.234;6.500;2023-09-08T09:15:41;101644.3;;;33.27
48628;BMP280;34424;52.234;6.500;2023-09-08T09:20:41;101643.1;;;33.65
48628;BMP280;34424;52.234;6.500;2023-09-08T09:25:41;101640;;;34.17
48628;BMP280;34424;52.234;6.500;2023-09-08T09:30:51;101640.5;;;32.98
48628;BMP280;34424;52.234;6.500;2023-09-08T09:35:46;101635.6;;;33.82
48628;BMP280;34424;52.234;6.500;2023-09-08T09:40:41;101636.2;;;33.48
48628;BMP280;34424;52.234;6.500;2023-09-08T09:45:41;101634.3;;;34.76
48628;BMP280;34424;52.234;6.500;2023-09-08T09:50:41;101634.8;;;35.03
48628;BMP280;34424;52.234;6.500;2023-09-08T09:55:41;101632.7;;;34.41
48628;BMP280;34424;52.234;6.500;2023-09-08T10:00:41;101633.1;;;34.87
48628;BMP280;34424;52.234;6.500;2023-09-08T10:05:41;101632.9;;;34.48
48628;BMP280;34424;52.234;6.500;2023-09-08T10:10:41;101636.5;;;34.72
48628;BMP280;34424;52.234;6.500;2023-09-08T10:15:41;101636.8;;;34.25
48628;BMP280;34424;52.234;6.500;2023-09-08T10:20:41;101637.4;;;34.79
48628;BMP280;34424;52.234;6.500;2023-09-08T10:25:42;101630.6;;;34.38
48628;BMP280;34424;52.234;6.500;2023-09-08T10:30:41;101627.5;;;34.59
48628;BMP280;34424;52.234;6.500;2023-09-08T10:35:41;101627.6;;;34.59
48628;BMP280;34424;52.234;6.500;2023-09-08T10:40:41;101627.4;;;34.62
48628;BMP280;34424;52.234;6.500;2023-09-08T10:45:41;101625.7;;;35.22
48628;BMP280;34424;52.234;6.500;2023-09-08T10:50:42;101619.6;;;35.45
48628;BMP280;34424;52.234;6.500;2023-09-08T10:55:44;101620.4;;;34.84
48628;BMP280;34424;52.234;6.500;2023-09-08T11:00:47;101625.5;;;35.25
48628;BMP280;34424;52.234;6.500;2023-09-08T11:05:41;101623;;;34.95
48628;BMP280;34424;52.234;6.500;2023-09-08T11:10:41;101627;;;34.7
48628;BMP280;34424;52.234;6.500;2023-09-08T11:15:41;101622.4;;;34.34
48628;BMP280;34424;52.234;6.500;2023-09-08T11:20:41;101624.5;;;34.97
48628;BMP280;34424;52.234;6.500;2023-09-08T11:25:41;101623.9;;;35.27
48628;BMP280;34424;52.234;6.500;2023-09-08T11:30:41;101618.7;;;35.99
48628;BMP280;34424;52.234;6.500;2023-09-08T11:35:41;101621;;;35.55
48628;BMP280;34424;52.234;6.500;2023-09-08T11:40:41;101618.9;;;35.35
48628;BMP280;34424;52.234;6.500;2023-09-08T11:45:41;101612.6;;;35.03
48628;BMP280;34424;52.234;6.500;2023-09-08T11:50:41;101611.3;;;34.65
48628;BMP280;34424;52.234;6.500;2023-09-08T11:55:42;101611.7;;;35.12
48628;BMP280;34424;52.234;6.500;2023-09-08T12:00:41;101607.9;;;33.74
48628;BMP280;34424;52.234;6.500;2023-09-08T12:05:41;101608.9;;;33.94
48628;BMP280;34424;52.234;6.500;2023-09-08T12:10:41;101602.8;;;34.96
48628;BMP280;34424;52.234;6.500;2023-09-08T12:15:41;101602.4;;;35.82
48628;BMP280;34424;52.234;6.500;2023-09-08T12:20:41;101596.1;;;34.97
48628;BMP280;34424;52.234;6.500;2023-09-08T12:25:47;101599.7;;;34.15
48628;BMP280;34424;52.234;6.500;2023-09-08T12:30:41;101596.5;;;34.32
48628;BMP280;34424;52.234;6.500;2023-09-08T12:35:42;101591.9;;;34.22
48628;BMP280;34424;52.234;6.500;2023-09-08T12:40:41;101591.5;;;35.05
48628;BMP280;34424;52.234;6.500;2023-09-08T12:45:41;101595.2;;;34.8
48628;BMP280;34424;52.234;6.500;2023-09-08T12:50:41;101585.5;;;34.5
48628;BMP280;34424;52.234;6.500;2023-09-08T12:55:41;101586.8;;;34.34
48628;BMP280;34424;52.234;6.500;2023-09-08T13:00:42;101584.5;;;35.02
48628;BMP280;34424;52.234;6.500;2023-09-08T13:05:41;101574.5;;;34.9
48628;BMP280;34424;52.234;6.500;2023-09-08T13:10:41;101574.8;;;35.32
48628;BMP280;34424;52.234;6.500;2023-09-08T13:15:41;101574.4;;;35.13
48628;BMP280;34424;52.234;6.500;2023-09-08T13:20:41;101572.3;;;34.86
48628;BMP280;34424;52.234;6.500;2023-09-08T13:25:41;101563.8;;;34.63
48628;BMP280;34424;52.234;6.500;2023-09-08T13:30:41;101559.6;;;35.25
48628;BMP280;34424;52.234;6.500;2023-09-08T13:35:41;101554.3;;;34.9
48628;BMP280;34424;52.234;6.500;2023-09-08T13:40:41;101553.8;;;34.81
48628;BMP280;34424;52.234;6.500;2023-09-08T13:45:41;101552.8;;;34.22
48628;BMP280;34424;52.234;6.500;2023-09-08T13:50:41;101553.7;;;34.58
48628;BMP280;34424;52.234;6.500;2023-09-08T13:55:41;101548.4;;;34.56
48628;BMP280;34424;52.234;6.500;2023-09-08T14:00:41;101550;;;34.68
48628;BMP280;34424;52.234;6.500;2023-09-08T14:05:41;101551.1;;;34.31
48628;BMP280;34424;52.234;6.500;2023-09-08T14:10:41;101548;;;34.18
48628;BMP280;34424;52.234;6.500;2023-09-08T14:15:41;101547.3;;;34.77
48628;BMP280;34424;52.234;6.500;2023-09-08T14:20:41;101541.4;;;34.81
48628;BMP280;34424;52.234;6.500;2023-09-08T14:25:41;101539.6;;;34.79
48628;BMP280;34424;52.234;6.500;2023-09-08T14:30:41;101533.6;;;34.05
48628;BMP280;34424;52.234;6.500;2023-09-08T14:35:44;101530;;;33.66
48628;BMP280;34424;52.234;6.500;2023-09-08T14:40:41;101524.6;;;33.7
48628;BMP280;34424;52.234;6.500;2023-09-08T14:45:41;101523.1;;;33.63
48628;BMP280;34424;52.234;6.500;2023-09-08T14:50:41;101523.9;;;33.16
48628;BMP280;34424;52.234;6.500;2023-09-08T14:55:41;101530.5;;;32.62
48628;BMP280;34424;52.234;6.500;2023-09-08T15:00:41;101519.7;;;32.65
48628;BMP280;34424;52.234;6.500;2023-09-08T15:05:41;101522.2;;;32.3
48628;BMP280;34424;52.234;6.500;2023-09-08T15:10:41;101522.3;;;32.75
48628;BMP280;34424;52.234;6.500;2023-09-08T15:15:41;101528.7;;;32.44
48628;BMP280;34424;52.234;6.500;2023-09-08T15:20:41;101521.1;;;32.77
48628;BMP280;34424;52.234;6.500;2023-09-08T15:25:41;101517.8;;;32.23
48628;BMP280;34424;52.234;6.500;2023-09-08T15:30:41;101514.3;;;32.53
48628;BMP280;34424;52.234;6.500;2023-09-08T15:35:41;101513;;;32.65
48628;BMP280;34424;52.234;6.500;2023-09-08T15:40:54;101511.3;;;32.02
48628;BMP280;34424;52.234;6.500;2023-09-08T15:45:41;101507.9;;;32.17
48628;BMP280;34424;52.234;6.500;2023-09-08T15:50:41;101505.9;;;31.82
48628;BMP280;34424;52.234;6.500;2023-09-08T15:55:41;101503.5;;;31.97
48628;BMP280;34424;52.234;6.500;2023-09-08T16:00:41;101505.2;;;32.03
48628;BMP280;34424;52.234;6.500;2023-09-08T16:05:41;101514.6;;;32.18
48628;BMP280;34424;52.234;6.500;2023-09-08T16:10:41;101508.6;;;32.07
48628;BMP280;34424;52.234;6.500;2023-09-08T16:15:41;101500.5;;;31.72
48628;BMP280;34424;52.234;6.500;2023-09-08T16:20:41;101497.6;;;31.42
48628;BMP280;34424;52.234;6.500;2023-09-08T16:25:41;101499.4;;;31.07
48628;BMP280;34424;52.234;6.500;2023-09-08T16:30:41;101496.2;;;31.05
48628;BMP280;34424;52.234;6.500;2023-09-08T16:35:41;101490.4;;;30.89
48628;BMP280;34424;52.234;6.500;2023-09-08T16:40:41;101495.5;;;31.24
48628;BMP280;34424;52.234;6.500;2023-09-08T16:45:41;101495.4;;;30.85
48628;BMP280;34424;52.234;6.500;2023-09-08T16:50:41;101496.5;;;30.52
48628;BMP280;34424;52.234;6.500;2023-09-08T16:55:41;101495.1;;;30.25
48628;BMP280;34424;52.234;6.500;2023-09-08T17:00:41;101494;;;29.77
48628;BMP280;34424;52.234;6.500;2023-09-08T17:05:41;101486.8;;;29.31
48628;BMP280;34424;52.234;6.500;2023-09-08T17:10:41;101493.8;;;28.49
48628;BMP280;34424;52.234;6.500;2023-09-08T17:15:41;101494.6;;;27.82
48628;BMP280;34424;52.234;6.500;2023-09-08T17:20:41;101492;;;27.21
48628;BMP280;34424;52.234;6.500;2023-09-08T17:25:41;101495.4;;;26.69
48628;BMP280;34424;52.234;6.500;2023-09-08T17:30:41;101496.6;;;26.17
48628;BMP280;34424;52.234;6.500;2023-09-08T17:35:41;101494.2;;;25.74
48628;BMP280;34424;52.234;6.500;2023-09-08T17:40:41;101499.9;;;25.39
48628;BMP280;34424;52.234;6.500;2023-09-08T17:45:43;101499.4;;;24.99
48628;BMP280;34424;52.234;6.500;2023-09-08T17:50:41;101499.8;;;24.61
48628;BMP280;34424;52.234;6.500;2023-09-08T17:55:41;101506.7;;;24.23
48628;BMP280;34424;52.234;6.500;2023-09-08T18:00:41;101507.3;;;23.88
48628;BMP280;34424;52.234;6.500;2023-09-08T18:05:41;101516.1;;;23.57
48628;BMP280;34424;52.234;6.500;2023-09-08T18:10:41;101511.3;;;23.3
48628;BMP280;34424;52.234;6.500;2023-09-08T18:15:41;101513.9;;;23.02
48628;BMP280;34424;52.234;6.500;2023-09-08T18:20:42;101518.1;;;22.75
48628;BMP280;34424;52.234;6.500;2023-09-08T18:25:41;101518.3;;;22.51
48628;BMP280;34424;52.234;6.500;2023-09-08T18:30:43;101524.4;;;22.3
48628;BMP280;34424;52.234;6.500;2023-09-08T18:35:41;101528.4;;;22.09
48628;BMP280;34424;52.234;6.500;2023-09-08T18:40:46;101524.8;;;21.88
48628;BMP280;34424;52.234;6.500;2023-09-08T18:45:41;101531.2;;;21.71
48628;BMP280;34424;52.234;6.500;2023-09-08T18:50:42;101533.8;;;21.54
48628;BMP280;34424;52.234;6.500;2023-09-08T18:55:41;101539.7;;;21.43
48628;BMP280;34424;52.234;6.500;2023-09-08T19:00:45;101538.3;;;21.3
48628;BMP280;34424;52.234;6.500;2023-09-08T19:05:41;101533.6;;;21.15
48628;BMP280;34424;52.234;6.500;2023-09-08T19:10:41;101538.2;;;21.03
48628;BMP280;34424;52.234;6.500;2023-09-08T19:15:42;101540.9;;;20.89
48628;BMP280;34424;52.234;6.500;2023-09-08T19:20:42;101541.9;;;20.76
48628;BMP280;34424;52.234;6.500;2023-09-08T19:25:41;101539;;;20.64
48628;BMP280;34424;52.234;6.500;2023-09-08T19:30:44;101542.7;;;20.5
48628;BMP280;34424;52.234;6.500;2023-09-08T19:35:42;101541.3;;;20.34
48628;BMP280;34424;52.234;6.500;2023-09-08T19:40:42;101539.7;;;20.25
48628;BMP280;34424;52.234;6.500;2023-09-08T19:45:42;101537.8;;;20.13
48628;BMP280;34424;52.234;6.500;2023-09-08T19:50:41;101540.8;;;20.02
48628;BMP280;34424;52.234;6.500;2023-09-08T19:55:42;101540.3;;;19.91
48628;BMP280;34424;52.234;6.500;2023-09-08T20:00:42;101535.3;;;19.81
48628;BMP280;34424;52.234;6.500;2023-09-08T20:05:44;101540.1;;;19.76
48628;BMP280;34424;52.234;6.500;2023-09-08T20:10:43;101540;;;19.68
48628;BMP280;34424;52.234;6.500;2023-09-08T20:15:42;101538.2;;;19.59
48628;BMP280;34424;52.234;6.500;2023-09-08T20:20:42;101538.5;;;19.52
48628;BMP280;34424;52.234;6.500;2023-09-08T20:25:42;101538.4;;;19.45
48628;BMP280;34424;52.234;6.500;2023-09-08T20:30:42;101536.8;;;19.35
48628;BMP280;34424;52.234;6.500;2023-09-08T20:35:43;101537.8;;;19.27
48628;BMP280;34424;52.234;6.500;2023-09-08T20:40:42;101531.5;;;19.21
48628;BMP280;34424;52.234;6.500;2023-09-08T20:45:42;101537.4;;;19.25
48628;BMP280;34424;52.234;6.500;2023-09-08T20:50:42;101534.3;;;19.21
48628;BMP280;34424;52.234;6.500;2023-09-08T20:55:42;101531.2;;;19.12
48628;BMP280;34424;52.234;6.500;2023-09-08T21:00:42;101528.7;;;19.04
48628;BMP280;34424;52.234;6.500;2023-09-08T21:05:42;101527.6;;;18.97
48628;BMP280;34424;52.234;6.500;2023-09-08T21:10:42;101524;;;18.85
48628;BMP280;34424;52.234;6.500;2023-09-08T21:15:42;101522.7;;;18.74
48628;BMP280;34424;52.234;6.500;2023-09-08T21:20:42;101520.9;;;18.63
48628;BMP280;34424;52.234;6.500;2023-09-08T21:25:42;101521;;;18.54
48628;BMP280;34424;52.234;6.500;2023-09-08T21:30:42;101519.8;;;18.48
48628;BMP280;34424;52.234;6.500;2023-09-08T21:35:42;101519;;;18.47
48628;BMP280;34424;52.234;6.500;2023-09-08T21:40:42;101516;;;18.44
48628;BMP280;34424;52.234;6.500;2023-09-08T21:45:42;101515.1;;;18.36
48628;BMP280;34424;52.234;6.500;2023-09-08T21:50:42;101518.8;;;18.25
48628;BMP280;34424;52.234;6.500;2023-09-08T21:55:42;101515.8;;;18.12
48628;BMP280;34424;52.234;6.500;2023-09-08T22:00:42;101519.4;;;18.02
48628;BMP280;34424;52.234;6.500;2023-09-08T22:05:42;101515.3;;;17.91
48628;BMP280;34424;52.234;6.500;2023-09-08T22:10:42;101513.7;;;17.78
48628;BMP280;34424;52.234;6.500;2023-09-08T22:15:42;101516.6;;;17.68
48628;BMP280;34424;52.234;6.500;2023-09-08T22:20:42;101521.5;;;17.59
48628;BMP280;34424;52.234;6.500;2023-09-08T22:25:42;101521.8;;;17.52
48628;BMP280;34424;52.234;6.500;2023-09-08T22:30:42;101519.8;;;17.48
48628;BMP280;34424;52.234;6.500;2023-09-08T22:35:42;101522.8;;;17.43
48628;BMP280;34424;52.234;6.500;2023-09-08T22:40:43;101518.2;;;17.38
48628;BMP280;34424;52.234;6.500;2023-09-08T22:45:44;101517.5;;;17.32
48628;BMP280;34424;52.234;6.500;2023-09-08T22:50:42;101512.4;;;17.28
48628;BMP280;34424;52.234;6.500;2023-09-08T22:55:42;101512.9;;;17.28
48628;BMP280;34424;52.234;6.500;2023-09-08T23:00:42;101512.4;;;17.32
48628;BMP280;34424;52.234;6.500;2023-09-08T23:05:42;101514.5;;;17.35
48628;BMP280;34424;52.234;6.500;2023-09-08T23:10:42;101512.7;;;17.29
48628;BMP280;34424;52.234;6.500;2023-09-08T23:15:42;101511.6;;;17.16
48628;BMP280;34424;52.234;6.500;2023-09-08T23:20:42;101516.4;;;17.08
48628;BMP280;34424;52.234;6.500;2023-09-08T23:25:42;101519.2;;;17.02
48628;BMP280;34424;52.234;6.500;2023-09-08T23:30:42;101517.3;;;16.98
48628;BMP280;34424;52.234;6.500;2023-09-08T23:35:42;101514.7;;;16.94
48628;BMP280;34424;52.234;6.500;2023-09-08T23:40:42;101507.9;;;16.9
48628;BMP280;34424;52.234;6.500;2023-09-08T23:45:46;101500.4;;;16.9
48628;BMP280;34424;52.234;6.500;2023-09-08T23:50:51;101496.3;;;16.84
48628;BMP280;34424;52.234;6.500;2023-09-08T23:55:42;101502.8;;;16.78
